sensor_id;sensor_type;location;lat;lon;timestamp;P1;durP1;ratioP1;P2;durP2;ratioP2
81996;SDS011;71500;50.806;8.774;2024-01-07T00:02:07;4.50;;;2.60;;
81996;SDS011;71500;50.806;8.774;2024-01-07T00:04:39;4.70;;;3.10;;
81996;SDS011;71500;50.806;8.774;2024-01-07T00:07:11;4.90;;;3.20;;
81996;SDS011;71500;50.806;8.774;2024-01-07T00:09:42;4.80;;;2.70;;
81996;SDS011;71500;50.806;8.774;2024-01-07T00:12:14;4.90;;;3.00;;
81996;SDS011;71500;50.806;8.774;2024-01-07T00:14:46;4.90;;;3.10;;
81996;SDS011;71500;50.806;8.774;2024-01-07T00:17:18;3.80;;;2.70;;
81996;SDS011;71500;50.806;8.774;2024-01-07T00:19:49;4.50;;;2.50;;
81996;SDS011;71500;50.806;8.774;2024-01-07T00:22:21;4.30;;;3.10;;
81996;SDS011;71500;50.806;8.774;2024-01-07T00:24:53;3.50;;;2.20;;
81996;SDS011;71500;50.806;8.774;2024-01-07T00:27:25;4.40;;;2.60;;
81996;SDS011;71500;50.806;8.774;2024-01-07T00:29:57;4.20;;;2.80;;
81996;SDS011;71500;50.806;8.774;2024-01-07T00:32:28;3.70;;;2.50;;
81996;SDS011;71500;50.806;8.774;2024-01-07T00:35:00;4.30;;;2.60;;
81996;SDS011;71500;50.806;8.774;2024-01-07T00:37:32;3.90;;;2.40;;
81996;SDS011;71500;50.806;8.774;2024-01-07T00:40:05;3.80;;;2.80;;
81996;SDS011;71500;50.806;8.774;2024-01-07T00:42:38;4.30;;;3.10;;
81996;SDS011;71500;50.806;8.774;2024-01-07T00:45:10;4.60;;;2.60;;
81996;SDS011;71500;50.806;8.774;2024-01-07T00:47:41;4.00;;;2.60;;
81996;SDS011;71500;50.806;8.774;2024-01-07T00:50:13;3.50;;;2.80;;
81996;SDS011;71500;50.806;8.774;2024-01-07T00:52:44;4.20;;;3.00;;
81996;SDS011;71500;50.806;8.774;2024-01-07T00:55:16;4.60;;;3.20;;
81996;SDS011;71500;50.806;8.774;2024-01-07T00:57:48;4.10;;;2.80;;
81996;SDS011;71500;50.806;8.774;2024-01-07T01:00:20;5.00;;;2.80;;
81996;SDS011;71500;50.806;8.774;2024-01-07T01:02:52;5.30;;;2.90;;
81996;SDS011;71500;50.806;8.774;2024-01-07T01:05:23;4.10;;;2.70;;
81996;SDS011;71500;50.806;8.774;2024-01-07T01:07:54;3.90;;;2.40;;
81996;SDS011;71500;50.806;8.774;2024-01-07T01:10:25;3.50;;;2.40;;
81996;SDS011;71500;50.806;8.774;2024-01-07T01:12:57;3.30;;;2.70;;
81996;SDS011;71500;50.806;8.774;2024-01-07T01:15:28;3.50;;;2.50;;
81996;SDS011;71500;50.806;8.774;2024-01-07T01:18:00;3.00;;;2.10;;
81996;SDS011;71500;50.806;8.774;2024-01-07T01:20:33;4.20;;;2.70;;
81996;SDS011;71500;50.806;8.774;2024-01-07T01:23:04;4.00;;;2.70;;
81996;SDS011;71500;50.806;8.774;2024-01-07T01:25:36;4.00;;;2.50;;
81996;SDS011;71500;50.806;8.774;2024-01-07T01:28:09;4.00;;;2.50;;
81996;SDS011;71500;50.806;8.774;2024-01-07T01:30:40;4.00;;;2.80;;
81996;SDS011;71500;50.806;8.774;2024-01-07T01:33:12;4.00;;;2.80;;
81996;SDS011;71500;50.806;8.774;2024-01-07T01:35:43;4.30;;;2.50;;
81996;SDS011;71500;50.806;8.774;2024-01-07T01:38:15;4.50;;;2.50;;
81996;SDS011;71500;50.806;8.774;2024-01-07T01:40:51;3.20;;;2.20;;
81996;SDS011;71500;50.806;8.774;2024-01-07T01:43:24;5.10;;;2.70;;
81996;SDS011;71500;50.806;8.774;2024-01-07T01:45:56;4.70;;;2.70;;
81996;SDS011;71500;50.806;8.774;2024-01-07T01:48:28;3.90;;;3.00;;
81996;SDS011;71500;50.806;8.774;2024-01-07T01:51:00;3.60;;;2.80;;
81996;SDS011;71500;50.806;8.774;2024-01-07T01:53:32;4.00;;;2.60;;
81996;SDS011;71500;50.806;8.774;2024-01-07T01:56:05;3.90;;;2.60;;
81996;SDS011;71500;50.806;8.774;2024-01-07T01:58:37;3.60;;;2.30;;
81996;SDS011;71500;50.806;8.774;2024-01-07T02:01:09;3.80;;;2.10;;
81996;SDS011;71500;50.806;8.774;2024-01-07T02:03:40;3.90;;;3.00;;
81996;SDS011;71500;50.806;8.774;2024-01-07T02:06:12;3.80;;;2.50;;
81996;SDS011;71500;50.806;8.774;2024-01-07T02:08:44;4.10;;;2.70;;
81996;SDS011;71500;50.806;8.774;2024-01-07T02:11:17;3.20;;;2.50;;
81996;SDS011;71500;50.806;8.774;2024-01-07T02:13:49;4.50;;;2.80;;
81996;SDS011;71500;50.806;8.774;2024-01-07T02:16:21;4.60;;;2.70;;
81996;SDS011;71500;50.806;8.774;2024-01-07T02:18:52;4.40;;;2.70;;
81996;SDS011;71500;50.806;8.774;2024-01-07T02:21:25;3.90;;;2.90;;
81996;SDS011;71500;50.806;8.774;2024-01-07T02:23:57;4.70;;;3.00;;
81996;SDS011;71500;50.806;8.774;2024-01-07T02:26:28;4.80;;;2.80;;
81996;SDS011;71500;50.806;8.774;2024-01-07T02:29:00;4.40;;;2.50;;
81996;SDS011;71500;50.806;8.774;2024-01-07T02:31:31;5.50;;;3.20;;
81996;SDS011;71500;50.806;8.774;2024-01-07T02:34:02;5.10;;;3.10;;
81996;SDS011;71500;50.806;8.774;2024-01-07T02:36:34;4.60;;;2.80;;
81996;SDS011;71500;50.806;8.774;2024-01-07T02:39:06;5.00;;;3.00;;
81996;SDS011;71500;50.806;8.774;2024-01-07T02:41:37;5.10;;;2.90;;
81996;SDS011;71500;50.806;8.774;2024-01-07T02:44:08;5.80;;;2.80;;
81996;SDS011;71500;50.806;8.774;2024-01-07T02:46:41;4.60;;;2.80;;
81996;SDS011;71500;50.806;8.774;2024-01-07T02:49:15;5.60;;;4.00;;
81996;SDS011;71500;50.806;8.774;2024-01-07T02:51:49;4.40;;;3.50;;
81996;SDS011;71500;50.806;8.774;2024-01-07T02:54:21;4.70;;;3.20;;
81996;SDS011;71500;50.806;8.774;2024-01-07T02:56:52;5.90;;;4.00;;
81996;SDS011;71500;50.806;8.774;2024-01-07T02:59:24;5.90;;;3.70;;
81996;SDS011;71500;50.806;8.774;2024-01-07T03:01:55;5.70;;;3.30;;
81996;SDS011;71500;50.806;8.774;2024-01-07T03:04:27;5.40;;;3.30;;
81996;SDS011;71500;50.806;8.774;2024-01-07T03:06:58;5.60;;;3.90;;
81996;SDS011;71500;50.806;8.774;2024-01-07T03:09:29;7.20;;;4.00;;
81996;SDS011;71500;50.806;8.774;2024-01-07T03:12:01;7.40;;;4.50;;
81996;SDS011;71500;50.806;8.774;2024-01-07T03:14:33;6.50;;;3.70;;
81996;SDS011;71500;50.806;8.774;2024-01-07T03:17:04;4.90;;;3.50;;
81996;SDS011;71500;50.806;8.774;2024-01-07T03:19:36;7.40;;;3.80;;
81996;SDS011;71500;50.806;8.774;2024-01-07T03:22:08;7.20;;;4.10;;
81996;SDS011;71500;50.806;8.774;2024-01-07T03:24:40;6.60;;;4.00;;
81996;SDS011;71500;50.806;8.774;2024-01-07T03:27:12;5.90;;;3.50;;
81996;SDS011;71500;50.806;8.774;2024-01-07T03:29:43;5.50;;;3.50;;
81996;SDS011;71500;50.806;8.774;2024-01-07T03:32:15;6.90;;;3.80;;
81996;SDS011;71500;50.806;8.774;2024-01-07T03:34:46;6.50;;;4.30;;
81996;SDS011;71500;50.806;8.774;2024-01-07T03:37:18;8.50;;;3.60;;
81996;SDS011;71500;50.806;8.774;2024-01-07T03:39:49;5.20;;;3.40;;
81996;SDS011;71500;50.806;8.774;2024-01-07T03:42:21;5.70;;;3.80;;
81996;SDS011;71500;50.806;8.774;2024-01-07T03:44:52;6.00;;;3.50;;
81996;SDS011;71500;50.806;8.774;2024-01-07T03:47:24;5.20;;;3.80;;
81996;SDS011;71500;50.806;8.774;2024-01-07T03:49:56;6.40;;;4.00;;
81996;SDS011;71500;50.806;8.774;2024-01-07T03:52:27;7.00;;;4.10;;
81996;SDS011;71500;50.806;8.774;2024-01-07T03:54:59;7.90;;;4.30;;
81996;SDS011;71500;50.806;8.774;2024-01-07T03:57:31;7.80;;;4.30;;
81996;SDS011;71500;50.806;8.774;2024-01-07T04:00:03;9.30;;;5.10;;
81996;SDS011;71500;50.806;8.774;2024-01-07T04:02:36;7.00;;;4.70;;
81996;SDS011;71500;50.806;8.774;2024-01-07T04:05:08;7.50;;;4.50;;
81996;SDS011;71500;50.806;8.774;2024-01-07T04:07:41;5.20;;;3.80;;
81996;SDS011;71500;50.806;8.774;2024-01-07T04:10:12;6.00;;;3.40;;
81996;SDS011;71500;50.806;8.774;2024-01-07T04:12:46;6.10;;;4.80;;
81996;SDS011;71500;50.806;8.774;2024-01-07T04:15:18;5.60;;;3.90;;
81996;SDS011;71500;50.806;8.774;2024-01-07T04:17:49;8.80;;;4.40;;
81996;SDS011;71500;50.806;8.774;2024-01-07T04:20:21;5.20;;;3.90;;
81996;SDS011;71500;50.806;8.774;2024-01-07T04:22:53;6.40;;;4.70;;
81996;SDS011;71500;50.806;8.774;2024-01-07T04:25:24;7.30;;;4.50;;
81996;SDS011;71500;50.806;8.774;2024-01-07T04:27:55;7.90;;;5.10;;
81996;SDS011;71500;50.806;8.774;2024-01-07T04:30:27;6.90;;;4.50;;
81996;SDS011;71500;50.806;8.774;2024-01-07T04:32:58;5.90;;;3.80;;
81996;SDS011;71500;50.806;8.774;2024-01-07T04:35:30;5.90;;;3.80;;
81996;SDS011;71500;50.806;8.774;2024-01-07T04:38:03;9.20;;;4.70;;
81996;SDS011;71500;50.806;8.774;2024-01-07T04:40:34;6.40;;;4.70;;
81996;SDS011;71500;50.806;8.774;2024-01-07T04:43:05;7.50;;;4.90;;
81996;SDS011;71500;50.806;8.774;2024-01-07T04:45:37;6.70;;;4.60;;
81996;SDS011;71500;50.806;8.774;2024-01-07T04:48:08;7.10;;;5.70;;
81996;SDS011;71500;50.806;8.774;2024-01-07T04:50:40;7.50;;;5.20;;
81996;SDS011;71500;50.806;8.774;2024-01-07T04:53:11;6.00;;;4.20;;
81996;SDS011;71500;50.806;8.774;2024-01-07T04:55:43;7.00;;;4.80;;
81996;SDS011;71500;50.806;8.774;2024-01-07T04:58:14;8.80;;;5.30;;
81996;SDS011;71500;50.806;8.774;2024-01-07T05:00:46;7.40;;;4.80;;
81996;SDS011;71500;50.806;8.774;2024-01-07T05:03:18;5.80;;;4.60;;
81996;SDS011;71500;50.806;8.774;2024-01-07T05:05:49;7.70;;;5.20;;
81996;SDS011;71500;50.806;8.774;2024-01-07T05:08:20;6.70;;;5.00;;
81996;SDS011;71500;50.806;8.774;2024-01-07T05:10:54;7.00;;;5.90;;
81996;SDS011;71500;50.806;8.774;2024-01-07T05:13:26;7.00;;;5.00;;
81996;SDS011;71500;50.806;8.774;2024-01-07T05:15:57;6.70;;;5.50;;
81996;SDS011;71500;50.806;8.774;2024-01-07T05:18:29;7.10;;;4.90;;
81996;SDS011;71500;50.806;8.774;2024-01-07T05:21:00;8.00;;;5.80;;
81996;SDS011;71500;50.806;8.774;2024-01-07T05:23:32;8.60;;;6.00;;
81996;SDS011;71500;50.806;8.774;2024-01-07T05:26:03;11.70;;;6.10;;
81996;SDS011;71500;50.806;8.774;2024-01-07T05:28:35;8.80;;;5.90;;
81996;SDS011;71500;50.806;8.774;2024-01-07T05:31:14;6.10;;;4.70;;
81996;SDS011;71500;50.806;8.774;2024-01-07T05:33:46;6.50;;;4.60;;
81996;SDS011;71500;50.806;8.774;2024-01-07T05:36:18;6.80;;;4.80;;
81996;SDS011;71500;50.806;8.774;2024-01-07T05:38:50;5.80;;;4.60;;
81996;SDS011;71500;50.806;8.774;2024-01-07T05:41:21;7.10;;;4.80;;
81996;SDS011;71500;50.806;8.774;2024-01-07T05:43:53;7.80;;;5.20;;
81996;SDS011;71500;50.806;8.774;2024-01-07T05:46:24;6.50;;;5.10;;
81996;SDS011;71500;50.806;8.774;2024-01-07T05:48:55;7.40;;;4.90;;
81996;SDS011;71500;50.806;8.774;2024-01-07T05:51:27;8.60;;;5.60;;
81996;SDS011;71500;50.806;8.774;2024-01-07T05:53:58;7.20;;;5.10;;
81996;SDS011;71500;50.806;8.774;2024-01-07T05:56:30;6.10;;;4.50;;
81996;SDS011;71500;50.806;8.774;2024-01-07T05:59:01;6.80;;;5.40;;
81996;SDS011;71500;50.806;8.774;2024-01-07T06:01:33;8.20;;;5.20;;
81996;SDS011;71500;50.806;8.774;2024-01-07T06:04:05;9.40;;;5.90;;
81996;SDS011;71500;50.806;8.774;2024-01-07T06:06:36;9.00;;;5.90;;
81996;SDS011;71500;50.806;8.774;2024-01-07T06:09:08;8.20;;;5.70;;
81996;SDS011;71500;50.806;8.774;2024-01-07T06:11:39;9.50;;;5.90;;
81996;SDS011;71500;50.806;8.774;2024-01-07T06:14:11;10.80;;;6.40;;
81996;SDS011;71500;50.806;8.774;2024-01-07T06:16:42;9.30;;;5.60;;
81996;SDS011;71500;50.806;8.774;2024-01-07T06:19:13;7.90;;;5.10;;
81996;SDS011;71500;50.806;8.774;2024-01-07T06:21:46;9.20;;;5.90;;
81996;SDS011;71500;50.806;8.774;2024-01-07T06:24:17;7.70;;;5.40;;
81996;SDS011;71500;50.806;8.774;2024-01-07T06:26:48;9.80;;;6.60;;
81996;SDS011;71500;50.806;8.774;2024-01-07T06:29:20;9.70;;;5.70;;
81996;SDS011;71500;50.806;8.774;2024-01-07T06:31:51;10.50;;;6.90;;
81996;SDS011;71500;50.806;8.774;2024-01-07T06:34:22;12.30;;;6.70;;
81996;SDS011;71500;50.806;8.774;2024-01-07T06:36:54;10.40;;;6.30;;
81996;SDS011;71500;50.806;8.774;2024-01-07T06:39:25;10.40;;;6.30;;
81996;SDS011;71500;50.806;8.774;2024-01-07T06:41:56;11.10;;;6.40;;
81996;SDS011;71500;50.806;8.774;2024-01-07T06:44:28;12.30;;;6.90;;
81996;SDS011;71500;50.806;8.774;2024-01-07T06:46:59;10.60;;;6.50;;
81996;SDS011;71500;50.806;8.774;2024-01-07T06:49:31;12.00;;;7.10;;
81996;SDS011;71500;50.806;8.774;2024-01-07T06:52:04;10.70;;;6.30;;
81996;SDS011;71500;50.806;8.774;2024-01-07T06:54:35;9.70;;;6.00;;
81996;SDS011;71500;50.806;8.774;2024-01-07T06:57:08;12.00;;;7.20;;
81996;SDS011;71500;50.806;8.774;2024-01-07T06:59:39;9.30;;;5.90;;
81996;SDS011;71500;50.806;8.774;2024-01-07T07:02:10;9.60;;;6.10;;
81996;SDS011;71500;50.806;8.774;2024-01-07T07:04:42;10.20;;;6.20;;
81996;SDS011;71500;50.806;8.774;2024-01-07T07:07:13;7.70;;;5.20;;
81996;SDS011;71500;50.806;8.774;2024-01-07T07:09:45;9.80;;;5.70;;
81996;SDS011;71500;50.806;8.774;2024-01-07T07:12:16;9.70;;;6.40;;
81996;SDS011;71500;50.806;8.774;2024-01-07T07:14:48;9.00;;;5.90;;
81996;SDS011;71500;50.806;8.774;2024-01-07T07:17:19;8.60;;;5.20;;
81996;SDS011;71500;50.806;8.774;2024-01-07T07:19:51;8.00;;;5.10;;
81996;SDS011;71500;50.806;8.774;2024-01-07T07:22:22;9.10;;;5.50;;
81996;SDS011;71500;50.806;8.774;2024-01-07T07:24:54;9.90;;;5.90;;
81996;SDS011;71500;50.806;8.774;2024-01-07T07:27:29;7.40;;;5.00;;
81996;SDS011;71500;50.806;8.774;2024-01-07T07:30:01;7.60;;;5.30;;
81996;SDS011;71500;50.806;8.774;2024-01-07T07:32:33;8.20;;;5.50;;
81996;SDS011;71500;50.806;8.774;2024-01-07T07:35:05;7.80;;;5.00;;
81996;SDS011;71500;50.806;8.774;2024-01-07T07:37:37;7.10;;;4.80;;
81996;SDS011;71500;50.806;8.774;2024-01-07T07:40:09;7.50;;;5.40;;
81996;SDS011;71500;50.806;8.774;2024-01-07T07:42:42;10.10;;;6.00;;
81996;SDS011;71500;50.806;8.774;2024-01-07T07:45:13;7.70;;;4.60;;
81996;SDS011;71500;50.806;8.774;2024-01-07T07:47:45;7.50;;;5.00;;
81996;SDS011;71500;50.806;8.774;2024-01-07T07:50:17;9.60;;;5.70;;
81996;SDS011;71500;50.806;8.774;2024-01-07T07:52:48;7.50;;;5.60;;
81996;SDS011;71500;50.806;8.774;2024-01-07T07:55:19;7.40;;;4.80;;
81996;SDS011;71500;50.806;8.774;2024-01-07T07:57:51;6.00;;;4.00;;
81996;SDS011;71500;50.806;8.774;2024-01-07T08:00:22;6.90;;;4.70;;
81996;SDS011;71500;50.806;8.774;2024-01-07T08:02:54;5.90;;;4.50;;
81996;SDS011;71500;50.806;8.774;2024-01-07T08:05:25;5.80;;;4.50;;
81996;SDS011;71500;50.806;8.774;2024-01-07T08:07:57;6.60;;;4.30;;
81996;SDS011;71500;50.806;8.774;2024-01-07T08:10:28;7.90;;;5.20;;
81996;SDS011;71500;50.806;8.774;2024-01-07T08:13:01;5.80;;;4.30;;
81996;SDS011;71500;50.806;8.774;2024-01-07T08:15:32;9.40;;;5.70;;
81996;SDS011;71500;50.806;8.774;2024-01-07T08:18:04;5.60;;;4.90;;
81996;SDS011;71500;50.806;8.774;2024-01-07T08:20:36;6.30;;;4.60;;
81996;SDS011;71500;50.806;8.774;2024-01-07T08:23:08;8.40;;;5.30;;
81996;SDS011;71500;50.806;8.774;2024-01-07T08:25:40;6.10;;;4.80;;
81996;SDS011;71500;50.806;8.774;2024-01-07T08:28:11;7.60;;;4.90;;
81996;SDS011;71500;50.806;8.774;2024-01-07T08:30:43;7.40;;;5.30;;
81996;SDS011;71500;50.806;8.774;2024-01-07T08:33:15;7.90;;;4.70;;
81996;SDS011;71500;50.806;8.774;2024-01-07T08:35:46;6.60;;;5.00;;
81996;SDS011;71500;50.806;8.774;2024-01-07T08:38:18;6.70;;;4.90;;
81996;SDS011;71500;50.806;8.774;2024-01-07T08:40:49;6.10;;;4.90;;
81996;SDS011;71500;50.806;8.774;2024-01-07T08:43:20;7.10;;;4.70;;
81996;SDS011;71500;50.806;8.774;2024-01-07T08:45:53;6.70;;;5.50;;
81996;SDS011;71500;50.806;8.774;2024-01-07T08:48:24;5.50;;;4.60;;
81996;SDS011;71500;50.806;8.774;2024-01-07T08:50:56;6.50;;;5.60;;
81996;SDS011;71500;50.806;8.774;2024-01-07T08:53:27;8.90;;;5.30;;
81996;SDS011;71500;50.806;8.774;2024-01-07T08:55:58;9.90;;;5.30;;
81996;SDS011;71500;50.806;8.774;2024-01-07T08:58:30;6.80;;;4.60;;
81996;SDS011;71500;50.806;8.774;2024-01-07T09:01:01;7.10;;;5.00;;
81996;SDS011;71500;50.806;8.774;2024-01-07T09:03:33;6.70;;;5.30;;
81996;SDS011;71500;50.806;8.774;2024-01-07T09:06:05;5.90;;;4.40;;
81996;SDS011;71500;50.806;8.774;2024-01-07T09:08:36;6.30;;;4.50;;
81996;SDS011;71500;50.806;8.774;2024-01-07T09:11:08;6.10;;;4.80;;
81996;SDS011;71500;50.806;8.774;2024-01-07T09:13:41;6.90;;;5.00;;
81996;SDS011;71500;50.806;8.774;2024-01-07T09:16:13;6.20;;;4.80;;
81996;SDS011;71500;50.806;8.774;2024-01-07T09:18:45;7.30;;;5.40;;
81996;SDS011;71500;50.806;8.774;2024-01-07T09:21:16;7.00;;;5.20;;
81996;SDS011;71500;50.806;8.774;2024-01-07T09:23:47;5.90;;;4.90;;
81996;SDS011;71500;50.806;8.774;2024-01-07T09:26:19;6.50;;;4.40;;
81996;SDS011;71500;50.806;8.774;2024-01-07T09:28:50;6.70;;;5.10;;
81996;SDS011;71500;50.806;8.774;2024-01-07T09:31:21;5.90;;;4.00;;
81996;SDS011;71500;50.806;8.774;2024-01-07T09:33:53;5.70;;;4.80;;
81996;SDS011;71500;50.806;8.774;2024-01-07T09:36:24;8.70;;;5.50;;
81996;SDS011;71500;50.806;8.774;2024-01-07T09:38:58;9.00;;;6.10;;
81996;SDS011;71500;50.806;8.774;2024-01-07T09:41:30;6.50;;;5.20;;
81996;SDS011;71500;50.806;8.774;2024-01-07T09:44:02;6.90;;;5.50;;
81996;SDS011;71500;50.806;8.774;2024-01-07T09:46:37;6.80;;;5.60;;
81996;SDS011;71500;50.806;8.774;2024-01-07T09:49:09;8.50;;;5.80;;
81996;SDS011;71500;50.806;8.774;2024-01-07T09:51:40;7.10;;;5.20;;
81996;SDS011;71500;50.806;8.774;2024-01-07T09:54:17;7.60;;;4.90;;
81996;SDS011;71500;50.806;8.774;2024-01-07T09:56:53;6.70;;;5.10;;
81996;SDS011;71500;50.806;8.774;2024-01-07T09:59:30;7.60;;;4.90;;
81996;SDS011;71500;50.806;8.774;2024-01-07T10:02:01;6.10;;;5.50;;
81996;SDS011;71500;50.806;8.774;2024-01-07T10:04:34;7.00;;;4.90;;
81996;SDS011;71500;50.806;8.774;2024-01-07T10:07:05;7.90;;;5.40;;
81996;SDS011;71500;50.806;8.774;2024-01-07T10:09:37;6.90;;;4.90;;
81996;SDS011;71500;50.806;8.774;2024-01-07T10:12:12;7.90;;;5.20;;
81996;SDS011;71500;50.806;8.774;2024-01-07T10:14:44;7.70;;;4.80;;
81996;SDS011;71500;50.806;8.774;2024-01-07T10:17:15;9.10;;;5.10;;
81996;SDS011;71500;50.806;8.774;2024-01-07T10:19:47;7.70;;;5.70;;
81996;SDS011;71500;50.806;8.774;2024-01-07T10:22:19;8.00;;;5.10;;
81996;SDS011;71500;50.806;8.774;2024-01-07T10:24:51;9.40;;;5.50;;
81996;SDS011;71500;50.806;8.774;2024-01-07T10:27:22;7.30;;;4.80;;
81996;SDS011;71500;50.806;8.774;2024-01-07T10:29:54;8.70;;;5.80;;
81996;SDS011;71500;50.806;8.774;2024-01-07T10:32:29;9.10;;;5.90;;
81996;SDS011;71500;50.806;8.774;2024-01-07T10:35:03;7.20;;;4.80;;
81996;SDS011;71500;50.806;8.774;2024-01-07T10:37:36;7.10;;;4.90;;
81996;SDS011;71500;50.806;8.774;2024-01-07T10:40:08;8.40;;;5.20;;
81996;SDS011;71500;50.806;8.774;2024-01-07T10:42:44;7.20;;;5.30;;
81996;SDS011;71500;50.806;8.774;2024-01-07T10:45:16;9.20;;;5.30;;
81996;SDS011;71500;50.806;8.774;2024-01-07T10:47:48;8.50;;;5.00;;
81996;SDS011;71500;50.806;8.774;2024-01-07T10:50:20;7.70;;;4.90;;
81996;SDS011;71500;50.806;8.774;2024-01-07T10:52:58;8.80;;;5.10;;
81996;SDS011;71500;50.806;8.774;2024-01-07T10:58:04;7.60;;;5.50;;
81996;SDS011;71500;50.806;8.774;2024-01-07T11:00:37;7.80;;;4.80;;
81996;SDS011;71500;50.806;8.774;2024-01-07T11:03:11;8.00;;;6.00;;
81996;SDS011;71500;50.806;8.774;2024-01-07T11:05:48;7.70;;;5.50;;
81996;SDS011;71500;50.806;8.774;2024-01-07T11:08:25;9.10;;;5.20;;
81996;SDS011;71500;50.806;8.774;2024-01-07T11:11:03;6.00;;;3.90;;
81996;SDS011;71500;50.806;8.774;2024-01-07T11:13:39;8.00;;;4.80;;
81996;SDS011;71500;50.806;8.774;2024-01-07T11:16:11;6.60;;;4.60;;
81996;SDS011;71500;50.806;8.774;2024-01-07T11:18:46;6.50;;;4.70;;
81996;SDS011;71500;50.806;8.774;2024-01-07T11:21:21;7.30;;;4.50;;
81996;SDS011;71500;50.806;8.774;2024-01-07T11:23:54;5.70;;;4.00;;
81996;SDS011;71500;50.806;8.774;2024-01-07T11:26:27;6.80;;;4.50;;
81996;SDS011;71500;50.806;8.774;2024-01-07T11:29:00;6.90;;;4.90;;
81996;SDS011;71500;50.806;8.774;2024-01-07T11:34:39;7.70;;;5.00;;
81996;SDS011;71500;50.806;8.774;2024-01-07T11:37:12;7.00;;;4.60;;
81996;SDS011;71500;50.806;8.774;2024-01-07T11:39:44;7.70;;;5.00;;
81996;SDS011;71500;50.806;8.774;2024-01-07T11:42:16;7.00;;;5.20;;
81996;SDS011;71500;50.806;8.774;2024-01-07T11:44:48;6.00;;;4.80;;
81996;SDS011;71500;50.806;8.774;2024-01-07T11:49:52;8.20;;;4.60;;
81996;SDS011;71500;50.806;8.774;2024-01-07T11:52:24;7.60;;;5.40;;
81996;SDS011;71500;50.806;8.774;2024-01-07T11:54:58;7.70;;;5.00;;
81996;SDS011;71500;50.806;8.774;2024-01-07T11:57:30;7.60;;;4.80;;
81996;SDS011;71500;50.806;8.774;2024-01-07T12:00:02;7.10;;;5.10;;
81996;SDS011;71500;50.806;8.774;2024-01-07T12:02:35;7.40;;;5.60;;
81996;SDS011;71500;50.806;8.774;2024-01-07T12:05:07;7.00;;;4.70;;
81996;SDS011;71500;50.806;8.774;2024-01-07T12:07:39;7.80;;;5.00;;
81996;SDS011;71500;50.806;8.774;2024-01-07T12:10:11;8.10;;;5.90;;
81996;SDS011;71500;50.806;8.774;2024-01-07T12:12:43;7.00;;;4.40;;
81996;SDS011;71500;50.806;8.774;2024-01-07T12:15:15;6.10;;;4.20;;
81996;SDS011;71500;50.806;8.774;2024-01-07T12:17:58;8.30;;;4.60;;
81996;SDS011;71500;50.806;8.774;2024-01-07T12:20:31;5.70;;;3.70;;
81996;SDS011;71500;50.806;8.774;2024-01-07T12:23:06;6.40;;;3.70;;
81996;SDS011;71500;50.806;8.774;2024-01-07T12:25:39;6.90;;;4.00;;
81996;SDS011;71500;50.806;8.774;2024-01-07T12:28:10;5.40;;;3.80;;
81996;SDS011;71500;50.806;8.774;2024-01-07T12:30:41;7.00;;;4.60;;
81996;SDS011;71500;50.806;8.774;2024-01-07T12:33:15;9.00;;;4.40;;
81996;SDS011;71500;50.806;8.774;2024-01-07T12:35:48;5.50;;;3.70;;
81996;SDS011;71500;50.806;8.774;2024-01-07T12:38:23;5.50;;;3.90;;
81996;SDS011;71500;50.806;8.774;2024-01-07T12:40:55;5.60;;;4.20;;
81996;SDS011;71500;50.806;8.774;2024-01-07T12:43:26;6.30;;;3.90;;
81996;SDS011;71500;50.806;8.774;2024-01-07T12:45:57;5.40;;;3.50;;
81996;SDS011;71500;50.806;8.774;2024-01-07T12:48:34;4.20;;;2.90;;
81996;SDS011;71500;50.806;8.774;2024-01-07T12:51:06;6.20;;;4.00;;
81996;SDS011;71500;50.806;8.774;2024-01-07T12:53:37;5.70;;;4.00;;
81996;SDS011;71500;50.806;8.774;2024-01-07T12:56:09;4.50;;;3.20;;
81996;SDS011;71500;50.806;8.774;2024-01-07T12:58:41;5.10;;;3.40;;
81996;SDS011;71500;50.806;8.774;2024-01-07T13:01:13;5.10;;;3.30;;
81996;SDS011;71500;50.806;8.774;2024-01-07T13:03:45;4.50;;;3.60;;
81996;SDS011;71500;50.806;8.774;2024-01-07T13:06:18;4.10;;;2.60;;
81996;SDS011;71500;50.806;8.774;2024-01-07T13:08:49;3.10;;;2.30;;
81996;SDS011;71500;50.806;8.774;2024-01-07T13:11:20;4.30;;;2.40;;
81996;SDS011;71500;50.806;8.774;2024-01-07T13:13:52;4.20;;;3.80;;
81996;SDS011;71500;50.806;8.774;2024-01-07T13:16:27;5.30;;;3.20;;
81996;SDS011;71500;50.806;8.774;2024-01-07T13:18:58;4.50;;;3.30;;
81996;SDS011;71500;50.806;8.774;2024-01-07T13:21:30;4.00;;;2.90;;
81996;SDS011;71500;50.806;8.774;2024-01-07T13:24:06;3.60;;;2.90;;
81996;SDS011;71500;50.806;8.774;2024-01-07T13:26:38;3.80;;;3.00;;
81996;SDS011;71500;50.806;8.774;2024-01-07T13:29:10;3.90;;;2.90;;
81996;SDS011;71500;50.806;8.774;2024-01-07T13:31:42;5.00;;;3.60;;
81996;SDS011;71500;50.806;8.774;2024-01-07T13:34:13;4.20;;;3.20;;
81996;SDS011;71500;50.806;8.774;2024-01-07T13:36:46;4.40;;;3.10;;
81996;SDS011;71500;50.806;8.774;2024-01-07T13:41:50;4.40;;;3.40;;
81996;SDS011;71500;50.806;8.774;2024-01-07T13:44:23;5.10;;;3.20;;
81996;SDS011;71500;50.806;8.774;2024-01-07T13:46:54;4.60;;;2.70;;
81996;SDS011;71500;50.806;8.774;2024-01-07T13:49:25;4.90;;;2.70;;
81996;SDS011;71500;50.806;8.774;2024-01-07T13:51:57;3.70;;;2.30;;
81996;SDS011;71500;50.806;8.774;2024-01-07T13:54:28;3.00;;;2.40;;
81996;SDS011;71500;50.806;8.774;2024-01-07T13:57:00;3.40;;;2.40;;
81996;SDS011;71500;50.806;8.774;2024-01-07T13:59:31;3.80;;;2.40;;
81996;SDS011;71500;50.806;8.774;2024-01-07T14:02:03;3.10;;;2.30;;
81996;SDS011;71500;50.806;8.774;2024-01-07T14:07:06;3.40;;;2.40;;
81996;SDS011;71500;50.806;8.774;2024-01-07T14:09:38;3.30;;;2.20;;
81996;SDS011;71500;50.806;8.774;2024-01-07T14:12:09;3.20;;;2.20;;
81996;SDS011;71500;50.806;8.774;2024-01-07T14:14:40;3.50;;;2.30;;
81996;SDS011;71500;50.806;8.774;2024-01-07T14:17:12;3.80;;;2.20;;
81996;SDS011;71500;50.806;8.774;2024-01-07T14:19:43;3.40;;;2.50;;
81996;SDS011;71500;50.806;8.774;2024-01-07T14:22:15;3.40;;;2.20;;
81996;SDS011;71500;50.806;8.774;2024-01-07T14:24:46;3.00;;;2.10;;
81996;SDS011;71500;50.806;8.774;2024-01-07T14:27:18;2.90;;;2.00;;
81996;SDS011;71500;50.806;8.774;2024-01-07T14:29:50;2.80;;;2.10;;
81996;SDS011;71500;50.806;8.774;2024-01-07T14:32:21;2.90;;;2.00;;
81996;SDS011;71500;50.806;8.774;2024-01-07T14:34:53;3.50;;;2.10;;
81996;SDS011;71500;50.806;8.774;2024-01-07T14:37:24;3.10;;;2.10;;
81996;SDS011;71500;50.806;8.774;2024-01-07T14:39:56;3.10;;;2.10;;
81996;SDS011;71500;50.806;8.774;2024-01-07T14:42:28;3.10;;;2.10;;
81996;SDS011;71500;50.806;8.774;2024-01-07T14:44:59;3.70;;;2.50;;
81996;SDS011;71500;50.806;8.774;2024-01-07T14:47:33;5.00;;;4.20;;
81996;SDS011;71500;50.806;8.774;2024-01-07T14:50:05;4.60;;;3.60;;
81996;SDS011;71500;50.806;8.774;2024-01-07T14:55:08;3.30;;;3.00;;
81996;SDS011;71500;50.806;8.774;2024-01-07T14:57:41;3.30;;;2.10;;
81996;SDS011;71500;50.806;8.774;2024-01-07T15:00:13;2.60;;;2.10;;
81996;SDS011;71500;50.806;8.774;2024-01-07T15:02:45;2.90;;;2.00;;
81996;SDS011;71500;50.806;8.774;2024-01-07T15:05:17;3.20;;;2.10;;
81996;SDS011;71500;50.806;8.774;2024-01-07T15:07:49;2.60;;;1.90;;
81996;SDS011;71500;50.806;8.774;2024-01-07T15:10:20;4.00;;;2.20;;
81996;SDS011;71500;50.806;8.774;2024-01-07T15:12:52;3.10;;;2.10;;
81996;SDS011;71500;50.806;8.774;2024-01-07T15:15:35;3.30;;;2.80;;
81996;SDS011;71500;50.806;8.774;2024-01-07T15:18:07;3.10;;;2.20;;
81996;SDS011;71500;50.806;8.774;2024-01-07T15:20:41;3.10;;;2.20;;
81996;SDS011;71500;50.806;8.774;2024-01-07T15:23:13;5.10;;;2.40;;
81996;SDS011;71500;50.806;8.774;2024-01-07T15:25:44;2.80;;;2.10;;
81996;SDS011;71500;50.806;8.774;2024-01-07T15:28:16;4.40;;;2.10;;
81996;SDS011;71500;50.806;8.774;2024-01-07T15:30:47;2.50;;;2.00;;
81996;SDS011;71500;50.806;8.774;2024-01-07T15:33:19;3.70;;;2.30;;